Time;durP1;ratioP1;P1;durP2;ratioP2;P2;SDS_P1;SDS_P2;PMS_P1;PMS_P2;Temp;Humidity;BMP_temperature;BMP_pressure;BME280_temperature;BME280_humidity;BME280_pressure;Samples;Min_cycle;Max_cycle;Signal;HPM_P1;HPM_P2
2022/07/23 00:01:34;;;;;;;2.70;1.77;;;;;;;24.43;46.43;101953.31;5108626;27;20096;-72
2022/07/23 00:03:59;;;;;;;2.47;2.20;;;;;;;24.43;46.46;101960.47;5110679;27;20035;-72
2022/07/23 00:06:25;;;;;;;3.58;1.90;;;;;;;24.41;46.39;101961.44;5098559;27;20063;-72
2022/07/23 00:08:51;;;;;;;2.40;2.00;;;;;;;24.38;46.53;101964.47;5106043;27;20081;-72
2022/07/23 00:11:17;;;;;;;2.17;1.98;;;;;;;24.35;46.71;101962.19;5102413;27;20038;-72
2022/07/23 00:13:43;;;;;;;2.58;1.95;;;;;;;24.35;46.78;101956.03;5115072;27;20042;-73
2022/07/23 00:16:08;;;;;;;5.22;2.25;;;;;;;24.35;46.58;101962.19;5111408;27;20102;-72
2022/07/23 00:18:34;;;;;;;2.42;2.10;;;;;;;24.35;46.83;101966.69;5110546;27;20051;-72
2022/07/23 00:21:00;;;;;;;3.88;2.17;;;;;;;24.34;46.69;101959.72;5112440;27;20914;-72
2022/07/23 00:23:27;;;;;;;3.13;2.15;;;;;;;24.37;46.63;101962.84;5106385;27;20039;-72
2022/07/23 00:25:53;;;;;;;2.38;2.17;;;;;;;24.32;46.88;101959.06;5111826;27;20038;-72
2022/07/23 00:28:18;;;;;;;3.17;2.03;;;;;;;24.35;46.68;101966.69;5111534;27;20032;-72
2022/07/23 00:30:44;;;;;;;2.38;1.90;;;;;;;24.30;46.74;101967.25;5106382;27;20111;-72
2022/07/23 00:33:10;;;;;;;3.30;2.35;;;;;;;24.30;46.74;101961.91;5107785;27;20598;-72
2022/07/23 00:35:40;;;;;;;2.60;1.90;;;;;;;24.31;46.67;101947.59;5108776;27;20035;-73
2022/07/23 00:38:07;;;;;;;2.40;2.20;;;;;;;24.33;46.71;101953.56;5110935;27;20063;-72
2022/07/23 00:40:32;;;;;;;3.25;2.08;;;;;;;24.35;46.75;101958.69;5104044;27;21573;-72
2022/07/23 00:42:59;;;;;;;2.60;2.20;;;;;;;24.36;46.60;101958.53;5105830;27;20488;-72
2022/07/23 00:45:25;;;;;;;2.30;1.90;;;;;;;24.29;46.83;101957.59;5110184;27;20062;-72
2022/07/23 00:47:50;;;;;;;2.55;1.83;;;;;;;24.29;46.75;101954.13;5112589;27;20043;-72
2022/07/23 00:50:16;;;;;;;3.85;2.17;;;;;;;24.24;46.83;101951.97;5117760;27;20027;-72
2022/07/23 00:52:42;;;;;;;4.55;2.00;;;;;;;24.29;46.74;101951.47;5111459;27;20078;-72
2022/07/23 00:55:09;;;;;;;3.28;2.10;;;;;;;24.32;46.88;101954.56;5118773;27;20026;-72
2022/07/23 00:57:35;;;;;;;2.40;2.05;;;;;;;24.29;46.81;101956.78;5091534;27;21461;-72
2022/07/23 01:00:02;;;;;;;2.50;2.20;;;;;;;24.29;46.89;101954.94;5122275;27;20123;-72
2022/07/23 01:02:27;;;;;;;2.70;2.25;;;;;;;24.30;46.73;101956.59;5115772;27;20801;-73
2022/07/23 01:04:54;;;;;;;4.38;2.33;;;;;;;24.28;46.89;101955.94;5124851;27;20039;-72
2022/07/23 01:07:20;;;;;;;2.58;2.17;;;;;;;24.29;46.82;101951.47;5113939;27;20061;-73
2022/07/23 01:09:46;;;;;;;2.88;2.17;;;;;;;24.19;47.09;101948.19;5095022;27;20035;-72
2022/07/23 01:12:12;;;;;;;2.60;2.38;;;;;;;24.22;46.96;101955.81;5090331;27;20732;-72
2022/07/23 01:14:38;;;;;;;2.30;1.90;;;;;;;24.18;46.86;101938.56;5119339;27;20039;-72
2022/07/23 01:17:04;;;;;;;3.28;2.30;;;;;;;24.32;46.75;101943.94;5101100;27;20035;-72
2022/07/23 01:19:30;;;;;;;2.83;2.00;;;;;;;24.21;46.78;101939.00;5104895;27;20507;-72
2022/07/23 01:22:01;;;;;;;2.10;1.90;;;;;;;24.21;46.93;101947.00;5090496;27;20052;-73
2022/07/23 01:24:27;;;;;;;2.97;2.10;;;;;;;24.25;46.98;101935.00;5091685;27;20043;-72
2022/07/23 01:27:00;;;;;;;3.72;2.05;;;;;;;24.18;46.94;101938.56;5094131;27;20035;-72
2022/07/23 01:29:25;;;;;;;2.88;2.03;;;;;;;24.22;47.14;101934.50;5089173;27;20046;-73
2022/07/23 01:31:52;;;;;;;2.47;2.10;;;;;;;24.19;46.99;101941.03;5089845;27;20023;-72
2022/07/23 01:34:19;;;;;;;3.55;1.90;;;;;;;24.19;46.92;101932.22;5089607;27;20119;-72
2022/07/23 01:36:46;;;;;;;2.55;2.00;;;;;;;24.19;46.78;101929.56;5079072;27;20475;-72
2022/07/23 01:39:14;;;;;;;2.20;2.00;;;;;;;24.20;46.83;101929.38;5090970;27;20039;-72
2022/07/23 01:41:40;;;;;;;2.95;2.25;;;;;;;24.19;46.86;101929.56;5095115;27;20034;-72
2022/07/23 01:44:06;;;;;;;2.20;2.00;;;;;;;24.19;46.89;101922.41;5112083;27;20035;-72
2022/07/23 01:46:32;;;;;;;2.88;2.20;;;;;;;24.18;47.12;101920.75;5103408;27;20418;-72
2022/07/23 01:48:58;;;;;;;4.18;2.10;;;;;;;24.20;46.93;101917.91;5083521;27;20067;-72
2022/07/23 01:51:59;;;;;;;2.80;2.00;;;;;;;24.23;46.87;101914.88;5110418;27;20539;-73
2022/07/23 01:54:30;;;;;;;2.35;2.03;;;;;;;24.21;46.78;101915.06;5096085;27;20034;-72
2022/07/23 01:56:57;;;;;;;3.58;2.10;;;;;;;24.21;46.94;101912.41;5096284;27;20040;-72
2022/07/23 01:59:24;;;;;;;2.15;1.95;;;;;;;24.10;47.16;101905.72;5101896;27;20061;-73
2022/07/23 02:01:50;;;;;;;2.60;2.00;;;;;;;24.16;46.96;101908.63;5125156;27;20480;-73
2022/07/23 02:04:17;;;;;;;2.45;2.03;;;;;;;24.14;47.01;101908.00;5078146;27;20093;-72
2022/07/23 02:06:43;;;;;;;3.75;2.10;;;;;;;24.08;47.11;101896.25;5094919;27;20497;-72
2022/07/23 02:09:09;;;;;;;2.55;2.00;;;;;;;24.11;46.97;101899.38;5094598;27;20084;-72
2022/07/23 02:11:34;;;;;;;2.90;1.88;;;;;;;24.17;47.02;101896.97;5102792;27;20429;-72
2022/07/23 02:14:00;;;;;;;2.38;2.13;;;;;;;24.09;47.10;101890.75;5100602;27;20047;-72
2022/07/23 02:16:25;;;;;;;3.15;2.13;;;;;;;24.08;46.80;101886.44;5110394;27;20038;-72
2022/07/23 02:18:51;;;;;;;2.80;2.35;;;;;;;24.09;47.16;101885.44;5089698;27;20039;-72
2022/07/23 02:21:16;;;;;;;2.85;1.98;;;;;;;24.09;47.13;101884.59;5088469;27;20044;-73
2022/07/23 02:23:42;;;;;;;2.40;2.20;;;;;;;24.13;47.02;101885.88;5111629;27;20514;-72
2022/07/23 02:26:07;;;;;;;2.92;2.15;;;;;;;24.10;46.88;101887.06;5113525;27;20038;-72
2022/07/23 02:28:33;;;;;;;2.55;2.20;;;;;;;24.06;47.20;101887.63;5089183;27;20032;-72
2022/07/23 02:30:58;;;;;;;2.28;2.08;;;;;;;24.08;46.85;101881.13;5116130;27;20030;-72
2022/07/23 02:33:24;;;;;;;2.47;2.28;;;;;;;24.07;47.18;101884.78;5086887;27;20772;-73
2022/07/23 02:35:49;;;;;;;3.20;2.10;;;;;;;24.05;47.12;101889.44;5115815;27;20026;-72
2022/07/23 02:38:16;;;;;;;2.65;2.30;;;;;;;24.03;47.06;101880.81;5108248;27;20482;-72
2022/07/23 02:40:42;;;;;;;3.28;2.10;;;;;;;24.06;47.09;101882.31;5102150;27;20027;-72
2022/07/23 02:43:08;;;;;;;2.78;1.92;;;;;;;24.07;47.05;101875.97;5102106;27;20775;-72
2022/07/23 02:45:33;;;;;;;2.13;1.90;;;;;;;24.04;47.12;101885.13;5085721;27;20055;-72
2022/07/23 02:47:59;;;;;;;2.22;2.03;;;;;;;24.00;47.08;101877.69;5089447;27;20035;-72
2022/07/23 02:50:25;;;;;;;2.25;2.00;;;;;;;24.02;47.22;101884.50;5091863;27;20521;-72
2022/07/23 02:52:54;;;;;;;2.83;1.95;;;;;;;23.99;47.29;101892.00;5098134;27;20042;-72
2022/07/23 02:55:20;;;;;;;4.72;2.13;;;;;;;24.03;47.14;101888.78;5092977;27;20039;-72
2022/07/23 02:57:45;;;;;;;2.40;2.20;;;;;;;24.03;47.03;101894.13;5096806;27;20609;-72
2022/07/23 03:00:11;;;;;;;2.42;2.22;;;;;;;24.00;46.95;101896.31;5107390;27;20038;-72
2022/07/23 03:02:38;;;;;;;2.35;2.15;;;;;;;23.97;47.19;101894.84;5084399;27;20031;-72
2022/07/23 03:05:04;;;;;;;3.10;2.20;;;;;;;23.98;46.97;101895.69;5105519;27;20511;-73
2022/07/23 03:07:30;;;;;;;3.22;1.92;;;;;;;23.98;47.29;101895.69;5094410;27;20083;-72
2022/07/23 03:09:55;;;;;;;3.03;2.40;;;;;;;23.93;47.00;101893.56;5091829;27;20695;-72
2022/07/23 03:12:22;;;;;;;2.25;2.05;;;;;;;24.00;47.15;101898.97;5123541;27;20033;-72
2022/07/23 03:14:49;;;;;;;2.88;2.15;;;;;;;23.95;47.25;101904.03;5099506;27;20047;-72
2022/07/23 03:17:14;;;;;;;2.53;2.25;;;;;;;23.98;47.19;101898.34;5113762;27;20031;-72
2022/07/23 03:19:40;;;;;;;2.75;2.00;;;;;;;23.97;47.01;101897.50;5092599;27;20461;-72
2022/07/23 03:22:08;;;;;;;2.05;1.80;;;;;;;23.99;47.09;101889.34;5073671;27;20047;-72
2022/07/23 03:27:18;;;;;;;2.45;2.03;;;;;;;23.96;47.16;101900.38;5095386;27;20057;-72
2022/07/23 03:29:43;;;;;;;2.38;1.90;;;;;;;23.98;47.16;101909.81;5094990;27;20416;-72
2022/07/23 03:32:09;;;;;;;2.50;2.20;;;;;;;23.91;47.04;101894.75;5089773;27;20027;-72
2022/07/23 03:34:35;;;;;;;2.85;2.00;;;;;;;23.92;47.27;101904.41;5098028;27;20035;-72
2022/07/23 03:37:00;;;;;;;2.75;2.20;;;;;;;23.91;47.07;101903.56;5131002;27;20042;-72
2022/07/23 03:39:26;;;;;;;3.10;2.10;;;;;;;23.95;47.23;101904.03;5083603;27;20100;-72
2022/07/23 03:41:51;;;;;;;2.75;2.28;;;;;;;23.89;47.29;101897.59;5098158;27;20397;-73
2022/07/23 03:44:17;;;;;;;2.45;1.98;;;;;;;23.90;47.35;101904.59;5092296;27;20038;-73
2022/07/23 03:46:42;;;;;;;1.92;1.80;;;;;;;23.89;47.25;101902.94;5091590;27;20509;-72
2022/07/23 03:49:09;;;;;;;2.88;2.03;;;;;;;23.87;47.39;101896.94;5097026;27;20041;-72
2022/07/23 03:51:34;;;;;;;2.17;1.90;;;;;;;23.92;47.22;101905.22;5110439;27;20047;-72
2022/07/23 03:54:00;;;;;;;1.88;1.63;;;;;;;23.89;47.14;101907.44;5095395;27;20038;-71
2022/07/23 03:56:26;;;;;;;1.83;1.73;;;;;;;23.90;47.28;101903.75;5089635;27;20039;-72
2022/07/23 03:58:51;;;;;;;2.97;2.00;;;;;;;23.82;47.40;101896.66;5095532;27;20047;-72
2022/07/23 04:01:17;;;;;;;2.08;1.88;;;;;;;23.84;47.34;101893.81;5095125;27;20094;-72
2022/07/23 04:03:43;;;;;;;2.15;2.00;;;;;;;23.88;47.26;101897.75;5087140;27;20036;-72
2022/07/23 04:06:08;;;;;;;2.28;1.88;;;;;;;23.78;47.43;101892.72;5095961;27;20377;-72
2022/07/23 04:08:35;;;;;;;2.20;2.00;;;;;;;23.86;47.29;101884.66;5097729;27;20047;-72
2022/07/23 04:11:02;;;;;;;2.35;2.15;;;;;;;23.85;47.27;101896.28;5094416;27;20958;-73
2022/07/23 04:13:28;;;;;;;2.88;2.20;;;;;;;23.84;47.23;101889.31;5100715;27;20035;-73
2022/07/23 04:15:54;;;;;;;2.38;1.90;;;;;;;23.83;47.51;101889.50;5115735;27;20088;-72
2022/07/23 04:18:23;;;;;;;2.30;2.10;;;;;;;23.83;47.25;101887.66;5093758;27;20042;-72
2022/07/23 04:20:56;;;;;;;2.30;2.00;;;;;;;23.86;47.32;101894.47;5096258;27;20075;-73
2022/07/23 04:23:22;;;;;;;2.10;1.90;;;;;;;23.82;47.51;101891.34;5109784;27;20083;-72
2022/07/23 04:25:49;;;;;;;3.17;2.08;;;;;;;23.81;47.43;101884.38;5072666;27;20610;-72
2022/07/23 04:28:14;;;;;;;1.90;1.80;;;;;;;23.86;47.32;101889.97;5094627;27;20031;-73
2022/07/23 04:30:40;;;;;;;2.17;1.98;;;;;;;23.82;47.23;101891.34;5098807;27;20049;-72
2022/07/23 04:33:08;;;;;;;2.15;2.00;;;;;;;23.84;47.32;101897.31;5119724;27;20039;-72
2022/07/23 04:35:36;;;;;;;2.17;1.90;;;;;;;23.85;47.15;101906.09;5098860;27;20127;-73
2022/07/23 04:38:11;;;;;;;1.98;1.77;;;;;;;23.86;47.27;101894.47;5097677;27;20489;-72
2022/07/23 04:40:37;;;;;;;3.17;2.00;;;;;;;23.82;47.40;101907.31;5123646;27;20092;-72
2022/07/23 04:43:02;;;;;;;2.67;1.90;;;;;;;23.78;47.40;101900.69;5093178;27;20043;-72
2022/07/23 04:45:29;;;;;;;2.00;1.90;;;;;;;23.84;47.31;101899.13;5083686;27;20044;-72
2022/07/23 04:47:55;;;;;;;3.33;2.00;;;;;;;23.80;47.07;101902.16;5096180;27;20054;-72
2022/07/23 04:50:21;;;;;;;2.45;2.13;;;;;;;23.83;47.28;101905.47;5107956;27;20902;-72
2022/07/23 04:52:48;;;;;;;2.13;1.92;;;;;;;23.81;47.33;101903.00;5100540;27;20039;-73
2022/07/23 04:55:14;;;;;;;3.53;1.92;;;;;;;23.77;47.16;101899.88;5082567;27;20034;-73
2022/07/23 04:57:40;;;;;;;2.10;1.80;;;;;;;23.84;47.21;101907.13;5073022;27;20035;-73
2022/07/23 05:00:07;;;;;;;2.20;2.00;;;;;;;23.79;47.30;101910.31;5097676;27;20027;-73
2022/07/23 05:02:32;;;;;;;2.80;1.95;;;;;;;23.78;47.32;101901.53;5091606;27;20036;-73
2022/07/23 05:04:58;;;;;;;2.65;1.90;;;;;;;23.85;47.35;101909.59;5099388;27;20037;-73
2022/07/23 05:07:24;;;;;;;2.03;1.90;;;;;;;23.82;47.35;101909.97;5071127;27;20071;-73
2022/07/23 05:09:50;;;;;;;2.38;2.10;;;;;;;23.82;47.10;101912.63;5091383;27;20138;-72
2022/07/23 05:12:15;;;;;;;3.10;2.03;;;;;;;23.77;47.45;101909.69;5076392;27;20028;-73
2022/07/23 05:14:43;;;;;;;1.98;1.88;;;;;;;23.82;47.29;101912.63;5091611;27;20027;-74
2022/07/23 05:17:08;;;;;;;2.35;1.98;;;;;;;23.77;47.54;101917.66;5093037;27;20066;-73
2022/07/23 05:19:34;;;;;;;2.67;1.90;;;;;;;23.82;47.35;101912.63;5107919;27;20047;-73
2022/07/23 05:22:01;;;;;;;2.65;1.95;;;;;;;23.76;47.36;101908.03;5096671;27;20044;-73
2022/07/23 05:24:27;;;;;;;2.35;2.08;;;;;;;23.83;47.12;101918.75;5093418;27;20568;-73
2022/07/23 05:26:53;;;;;;;2.00;1.80;;;;;;;23.84;47.35;101915.94;5089429;27;20031;-73
2022/07/23 05:29:19;;;;;;;1.98;1.83;;;;;;;23.85;47.21;101919.41;5093115;27;20427;-73
2022/07/23 05:31:44;;;;;;;2.10;1.90;;;;;;;23.89;46.98;101932.19;5084269;27;20046;-73
2022/07/23 05:34:10;;;;;;;1.95;1.70;;;;;;;23.88;46.98;101927.88;5089181;27;20035;-73
2022/07/23 05:36:37;;;;;;;2.28;1.70;;;;;;;23.85;47.26;101932.72;5089775;27;20080;-73
2022/07/23 05:39:03;;;;;;;2.25;1.67;;;;;;;23.91;46.98;101929.34;5099169;27;20409;-73
2022/07/23 05:41:32;;;;;;;2.00;1.80;;;;;;;23.81;47.25;101933.06;5091774;27;20036;-72
2022/07/23 05:43:59;;;;;;;2.25;2.00;;;;;;;23.84;47.12;101931.88;5094375;27;20496;-73
2022/07/23 05:46:26;;;;;;;2.13;1.90;;;;;;;23.77;47.12;101929.13;5092542;27;20772;-73
2022/07/23 05:48:57;;;;;;;1.80;1.70;;;;;;;23.85;47.12;101932.72;5088791;27;20050;-73
2022/07/23 05:51:45;;;;;;;3.13;2.00;;;;;;;23.84;47.28;101931.06;5114795;27;20039;-73
2022/07/23 05:54:11;;;;;;;1.83;1.73;;;;;;;23.85;46.97;101936.19;5081249;27;20492;-73
2022/07/23 05:56:38;;;;;;;2.00;1.80;;;;;;;23.88;47.06;101938.53;5087016;27;20035;-73
2022/07/23 05:59:03;;;;;;;1.73;1.63;;;;;;;23.87;47.09;101944.81;5092376;27;20626;-73
2022/07/23 06:01:29;;;;;;;2.05;1.80;;;;;;;23.90;47.04;101943.66;5117868;27;21156;-73
2022/07/23 06:04:06;;;;;;;2.15;1.92;;;;;;;23.81;47.30;101937.56;5094164;27;20035;-73
2022/07/23 06:06:35;;;;;;;2.03;1.85;;;;;;;23.86;47.02;101939.69;5089662;27;20028;-73
2022/07/23 06:09:02;;;;;;;2.22;1.80;;;;;;;23.86;47.11;101937.84;5097479;27;20043;-73
2022/07/23 06:11:28;;;;;;;2.40;1.80;;;;;;;23.80;47.22;101934.09;5103036;27;20024;-73
2022/07/23 06:13:53;;;;;;;2.08;1.80;;;;;;;23.81;47.28;101937.56;5086938;27;20036;-73
2022/07/23 06:16:23;;;;;;;;;;;;;;;23.86;47.19;101942.34;5086815;27;20038;-72
2022/07/23 06:18:49;;;;;;;2.10;1.90;;;;;;;23.84;47.20;101937.19;5090876;27;19916;-73
2022/07/23 06:21:14;;;;;;;1.80;1.70;;;;;;;23.83;47.20;101948.03;5088838;27;20058;-73
2022/07/23 06:23:40;;;;;;;2.53;1.80;;;;;;;23.77;47.31;101942.41;5085179;27;20128;-73
2022/07/23 06:26:05;;;;;;;2.10;1.90;;;;;;;23.79;47.13;101942.25;5102752;27;20121;-72
2022/07/23 06:28:31;;;;;;;1.70;1.60;;;;;;;23.85;47.00;101946.84;5090151;27;20077;-73
2022/07/23 06:30:56;;;;;;;2.03;1.75;;;;;;;23.84;47.23;101942.53;5095378;27;20035;-73
2022/07/23 06:33:22;;;;;;;2.05;1.88;;;;;;;23.78;47.17;101944.06;5106780;27;20031;-73
2022/07/23 06:35:48;;;;;;;1.95;1.85;;;;;;;23.83;47.18;101948.84;5092195;27;20043;-73
2022/07/23 06:38:14;;;;;;;1.80;1.65;;;;;;;23.83;47.11;101948.03;5104109;27;20500;-73
2022/07/23 06:40:41;;;;;;;1.60;1.50;;;;;;;23.86;47.14;101948.50;5094184;28;20039;-73
2022/07/23 06:43:06;;;;;;;2.03;1.80;;;;;;;23.85;47.18;101946.00;5083996;27;20038;-73
2022/07/23 06:45:36;;;;;;;2.25;1.83;;;;;;;23.91;47.20;101950.63;5120570;27;20084;-73
2022/07/23 06:48:02;;;;;;;1.73;1.63;;;;;;;23.92;47.03;101953.09;5086460;27;20036;-73
2022/07/23 06:50:28;;;;;;;1.90;1.80;;;;;;;23.96;47.08;101961.56;5086021;28;20046;-73
2022/07/23 06:52:53;;;;;;;1.88;1.63;;;;;;;23.95;46.74;101958.06;5098793;27;20027;-73
2022/07/23 06:55:19;;;;;;;3.72;2.00;;;;;;;23.96;46.97;101959.72;5085336;27;20038;-73
2022/07/23 06:57:45;;;;;;;1.98;1.65;;;;;;;23.94;46.76;101964.41;5086846;27;20039;-73
2022/07/23 07:00:11;;;;;;;2.42;1.90;;;;;;;23.91;47.00;101963.94;5117135;27;20035;-72
2022/07/23 07:02:37;;;;;;;1.92;1.65;;;;;;;23.97;47.02;101972.00;5087054;28;20043;-72
2022/07/23 07:05:04;;;;;;;1.83;1.50;;;;;;;24.01;47.00;101977.78;5087576;27;20035;-72
2022/07/23 07:07:29;;;;;;;1.65;1.50;;;;;;;24.00;46.91;101982.28;5090321;28;20513;-72
2022/07/23 07:09:55;;;;;;;2.88;1.90;;;;;;;23.98;46.95;101978.16;5113067;27;20035;-72
2022/07/23 07:12:20;;;;;;;2.75;1.92;;;;;;;23.98;47.08;101989.63;5116200;27;20102;-72
2022/07/23 07:14:46;;;;;;;2.38;1.95;;;;;;;24.01;46.85;101981.28;5113832;27;20481;-71
2022/07/23 07:17:11;;;;;;;1.63;1.52;;;;;;;24.02;46.46;101990.91;5116475;27;20722;-72
2022/07/23 07:19:37;;;;;;;3.10;1.73;;;;;;;24.02;46.68;101998.06;5107989;27;20683;-72
2022/07/23 07:22:03;;;;;;;2.42;1.70;;;;;;;24.04;46.59;101988.91;5107779;27;20050;-72
2022/07/23 07:24:28;;;;;;;1.92;1.60;;;;;;;24.03;46.41;101987.25;5118189;27;20483;-71
2022/07/23 07:26:54;;;;;;;3.33;1.95;;;;;;;24.06;46.48;101994.06;5109975;27;20485;-72
2022/07/23 07:29:19;;;;;;;4.15;1.70;;;;;;;24.07;46.52;101993.88;5116672;27;20043;-72
2022/07/23 07:31:45;;;;;;;2.15;1.67;;;;;;;24.11;46.61;101999.66;5101302;27;20031;-73
2022/07/23 07:34:10;;;;;;;1.63;1.50;;;;;;;24.11;46.47;101994.34;5110336;27;20047;-72
2022/07/23 07:36:37;;;;;;;1.85;1.55;;;;;;;24.14;46.68;101993.97;5098279;27;20221;-72
2022/07/23 07:39:04;;;;;;;1.60;1.50;;;;;;;24.16;46.34;102001.78;5110555;27;20056;-72
2022/07/23 07:41:31;;;;;;;1.35;1.25;;;;;;;24.09;46.59;101996.38;5106267;27;20917;-71
2022/07/23 07:43:56;;;;;;;1.45;1.35;;;;;;;24.12;46.46;101998.66;5117339;27;20069;-72
2022/07/23 07:46:23;;;;;;;2.08;1.88;;;;;;;24.06;46.64;101997.56;5118516;27;20161;-71
2022/07/23 07:48:50;;;;;;;1.90;1.50;;;;;;;24.10;46.56;102001.50;5109613;27;20451;-71
2022/07/23 07:51:16;;;;;;;1.40;1.30;;;;;;;24.07;46.67;102001.88;5106369;27;20540;-71
2022/07/23 07:53:41;;;;;;;2.03;1.80;;;;;;;24.09;46.44;102015.81;5115020;27;20034;-71
2022/07/23 07:56:07;;;;;;;2.28;1.83;;;;;;;24.11;46.33;102012.97;5116067;27;20035;-72
2022/07/23 07:58:32;;;;;;;1.70;1.60;;;;;;;24.11;46.55;102023.63;5110554;27;20035;-72
2022/07/23 08:00:58;;;;;;;1.67;1.58;;;;;;;24.11;46.52;102020.97;5106233;27;20046;-72
2022/07/23 08:03:23;;;;;;;1.65;1.55;;;;;;;24.11;46.40;102010.31;5118248;27;20039;-72
2022/07/23 08:05:49;;;;;;;1.50;1.40;;;;;;;24.18;46.22;102007.75;5101281;27;20091;-72
2022/07/23 08:08:15;;;;;;;1.73;1.48;;;;;;;24.17;46.37;102014.91;5109597;27;20043;-72
2022/07/23 08:10:41;;;;;;;2.00;1.42;;;;;;;24.19;46.38;102012.06;5116027;27;20039;-72
2022/07/23 08:13:07;;;;;;;2.50;1.42;;;;;;;24.25;46.17;102019.34;5117496;27;20837;-73
2022/07/23 08:15:32;;;;;;;3.30;1.42;;;;;;;24.20;46.36;102011.06;5115794;27;20320;-72
2022/07/23 08:17:58;;;;;;;2.38;1.52;;;;;;;24.21;46.11;102010.03;5119844;27;20030;-72
2022/07/23 08:20:25;;;;;;;2.10;1.60;;;;;;;24.22;46.17;102015.19;5125654;27;20054;-72
2022/07/23 08:22:55;;;;;;;1.42;1.33;;;;;;;24.21;46.21;102016.19;5126897;27;20050;-72
2022/07/23 08:25:26;;;;;;;2.08;1.38;;;;;;;24.21;46.40;102013.53;5095321;27;20027;-72
2022/07/23 08:27:52;;;;;;;1.58;1.48;;;;;;;24.21;46.46;102020.69;5118323;27;20083;-72
2022/07/23 08:30:19;;;;;;;1.45;1.35;;;;;;;24.19;46.45;102018.22;5113361;27;20035;-72
2022/07/23 08:32:50;;;;;;;1.83;1.63;;;;;;;24.21;46.41;102020.69;5115460;27;20035;-73
2022/07/23 08:35:17;;;;;;;1.20;1.15;;;;;;;24.23;46.54;102013.34;5111336;27;20046;-73
2022/07/23 08:37:43;;;;;;;3.03;1.40;;;;;;;24.24;46.13;102015.84;5110845;27;20043;-72
2022/07/23 08:40:09;;;;;;;2.28;1.30;;;;;;;24.24;46.32;102010.53;5104676;27;20039;-72
2022/07/23 08:42:35;;;;;;;2.30;1.50;;;;;;;24.21;46.48;102012.72;5108825;27;20060;-72
2022/07/23 08:45:02;;;;;;;2.42;1.77;;;;;;;24.19;46.59;102014.72;5112137;27;20035;-72
2022/07/23 08:47:28;;;;;;;2.90;1.42;;;;;;;24.23;46.56;102019.50;5110466;27;20053;-72
2022/07/23 08:49:54;;;;;;;2.70;1.65;;;;;;;24.21;46.49;102015.38;5104180;27;20066;-72
2022/07/23 08:52:20;;;;;;;2.50;1.58;;;;;;;24.23;46.57;102019.50;5109519;27;20546;-72
2022/07/23 08:54:45;;;;;;;1.50;1.40;;;;;;;24.25;46.47;102016.69;5112181;27;20039;-72
2022/07/23 08:57:11;;;;;;;1.85;1.60;;;;;;;24.24;46.41;102012.38;5110657;27;20051;-72
2022/07/23 08:59:36;;;;;;;2.55;1.48;;;;;;;24.28;46.41;102016.31;5110738;27;20646;-72
2022/07/23 09:02:02;;;;;;;1.40;1.30;;;;;;;24.25;46.42;102008.69;5113102;27;20047;-72
2022/07/23 09:04:27;;;;;;;2.47;1.27;;;;;;;24.22;46.43;102019.69;5116933;27;20045;-72
2022/07/23 09:06:54;;;;;;;2.30;1.30;;;;;;;24.17;46.53;102014.09;5102727;27;20088;-72
2022/07/23 09:09:20;;;;;;;3.95;1.50;;;;;;;24.13;46.18;102021.59;5126601;27;20040;-72
2022/07/23 09:12:01;;;;;;;4.13;1.95;;;;;;;24.13;46.26;102016.28;5117367;27;20118;-72
2022/07/23 09:14:46;;;;;;;4.38;1.58;;;;;;;24.11;46.04;102015.63;5114684;27;20027;-73
2022/07/23 09:17:16;;;;;;;2.17;1.38;;;;;;;24.11;46.07;102021.78;5120265;27;20058;-73
2022/07/23 09:19:44;;;;;;;2.67;1.50;;;;;;;24.13;46.31;102026.94;5119000;27;20525;-74
2022/07/23 09:22:26;;;;;;;4.05;1.70;;;;;;;24.22;45.99;102017.84;5113998;27;20075;-76
2022/07/23 09:25:06;;;;;;;3.40;1.60;;;;;;;24.03;46.24;102021.84;5107555;27;20520;-76
2022/07/23 09:27:52;;;;;;;4.47;1.77;;;;;;;23.98;46.20;102015.41;5109284;27;20047;-76
2022/07/23 09:30:19;;;;;;;4.60;1.48;;;;;;;24.00;46.20;102024.03;5114254;27;20031;-76
2022/07/23 09:33:02;;;;;;;4.25;1.63;;;;;;;24.09;45.99;102028.28;5124949;27;20072;-76
2022/07/23 09:35:46;;;;;;;3.50;1.60;;;;;;;24.07;46.03;102028.47;5122354;27;20065;-75
2022/07/23 09:38:13;;;;;;;2.05;1.65;;;;;;;23.95;45.81;102019.25;5102855;27;20479;-76
2022/07/23 09:40:38;;;;;;;3.20;1.63;;;;;;;24.02;46.49;102017.53;5122478;27;20031;-75
2022/07/23 09:43:04;;;;;;;6.57;1.48;;;;;;;24.04;46.30;102022.66;5119282;27;20028;-76
2022/07/23 09:45:29;;;;;;;2.53;1.30;;;;;;;24.04;46.08;102018.16;5118647;27;20122;-75
2022/07/23 09:48:14;;;;;;;4.95;1.80;;;;;;;24.06;45.92;102028.66;5113250;27;20043;-76
2022/07/23 09:50:41;;;;;;;3.28;1.48;;;;;;;24.07;45.51;102022.34;5105536;27;20046;-75
2022/07/23 09:53:08;;;;;;;3.45;1.70;;;;;;;24.01;46.09;102031.00;5118212;27;20421;-76
2022/07/23 09:55:38;;;;;;;4.13;1.50;;;;;;;24.04;45.57;102028.81;5108173;27;20510;-75
2022/07/23 09:58:12;;;;;;;2.33;1.50;;;;;;;24.01;45.90;102029.16;5117770;27;20046;-75
2022/07/23 10:00:38;;;;;;;4.15;1.48;;;;;;;23.97;45.73;102037.69;5109551;27;20062;-76
2022/07/23 10:03:06;;;;;;;3.13;1.33;;;;;;;23.95;46.42;102040.53;5125045;27;20045;-75
2022/07/23 10:05:52;;;;;;;3.05;1.42;;;;;;;23.92;45.94;102034.75;5120615;27;20091;-75
2022/07/23 10:08:28;;;;;;;3.25;1.45;;;;;;;23.98;45.52;102034.84;5117719;27;20476;-75
2022/07/23 10:11:14;;;;;;;4.32;1.52;;;;;;;23.88;45.37;102039.59;5115980;27;20458;-76
2022/07/23 10:13:59;;;;;;;3.35;1.70;;;;;;;23.92;46.16;102038.25;5103800;27;20035;-75
2022/07/23 10:16:32;;;;;;;1.58;1.48;;;;;;;23.87;45.68;102047.72;5097015;27;20069;-75
2022/07/23 10:18:58;;;;;;;2.70;1.48;;;;;;;23.85;45.57;102036.44;5124719;27;20035;-75
2022/07/23 10:21:50;;;;;;;1.30;1.20;;;;;;;24.00;45.60;102038.16;5101822;27;20051;-75
2022/07/23 10:25:00;;;;;;;1.48;1.38;;;;;;;23.98;45.21;102040.19;5117510;27;20130;-75
2022/07/23 10:27:56;;;;;;;2.08;1.40;;;;;;;23.91;45.42;102044.56;5121641;27;20039;-75
2022/07/23 10:30:55;;;;;;;2.92;1.40;;;;;;;23.89;45.60;102045.75;5121138;27;20034;-75
2022/07/23 10:33:43;;;;;;;3.40;1.40;;;;;;;23.87;45.65;102055.72;5122144;27;20158;-75
2022/07/23 10:36:24;;;;;;;2.97;1.75;;;;;;;23.94;45.68;102057.50;5103065;28;20113;-75
2022/07/23 10:39:21;;;;;;;1.20;1.10;;;;;;;23.85;45.60;102055.06;5115949;27;20453;-75
2022/07/23 10:41:47;;;;;;;1.60;1.35;;;;;;;23.86;45.53;102064.69;5118126;27;20355;-78
2022/07/23 10:44:19;;;;;;;2.15;1.50;;;;;;;23.85;45.79;102058.56;5118906;27;20087;-75
2022/07/23 10:49:41;;;;;;;1.77;1.30;;;;;;;23.79;45.89;102064.59;5093404;27;20047;-75
2022/07/23 10:52:25;;;;;;;1.67;1.40;;;;;;;23.85;45.24;102063.88;5117407;27;20050;-76
2022/07/23 10:54:55;;;;;;;3.03;1.60;;;;;;;23.80;45.73;102075.06;5113928;27;20031;-75
2022/07/23 10:57:25;;;;;;;2.92;1.67;;;;;;;23.68;45.38;102072.97;5122566;27;20050;-75
2022/07/23 11:00:00;;;;;;;4.25;1.60;;;;;;;23.60;45.82;102081.00;5104233;27;20035;-73
2022/07/23 11:02:28;;;;;;;2.13;1.20;;;;;;;23.85;45.07;102069.19;5112517;27;20031;-73
2022/07/23 11:05:00;;;;;;;3.50;1.50;;;;;;;23.88;44.87;102066.22;5114024;27;20035;-73
2022/07/23 11:07:26;;;;;;;2.40;1.38;;;;;;;23.85;44.77;102071.03;5110987;27;20467;-73
2022/07/23 11:09:51;;;;;;;1.55;1.40;;;;;;;23.87;45.19;102072.50;5117393;27;20040;-72
2022/07/23 11:12:22;;;;;;;1.48;1.38;;;;;;;23.83;45.55;102063.22;5105905;27;20096;-73
2022/07/23 11:15:12;;;;;;;2.25;1.38;;;;;;;23.85;45.04;102061.22;5116926;27;20027;-73
2022/07/23 11:17:59;;;;;;;2.08;1.30;;;;;;;23.76;45.91;102075.59;5133008;27;20042;-74
2022/07/23 11:20:25;;;;;;;2.17;1.58;;;;;;;23.83;45.75;102065.06;5127872;27;20116;-72
2022/07/23 11:22:56;;;;;;;2.72;1.52;;;;;;;23.86;45.74;102068.19;5122466;27;20135;-76
2022/07/23 11:25:21;;;;;;;2.58;1.52;;;;;;;23.87;45.21;102072.50;5122033;27;20039;-74
2022/07/23 11:27:48;;;;;;;6.78;1.40;;;;;;;23.76;44.87;102060.47;5128410;27;20035;-74
2022/07/23 11:30:26;;;;;;;1.52;1.27;;;;;;;23.88;44.97;102074.19;5118361;27;20631;-73
2022/07/23 11:32:54;;;;;;;2.58;1.45;;;;;;;23.79;45.03;102067.25;5123888;27;20024;-74
2022/07/23 11:35:27;;;;;;;1.63;1.50;;;;;;;23.81;45.38;102068.72;5112840;27;20079;-74